sensor_id;sensor_type;location;lat;lon;timestamp;P1;durP1;ratioP1;P2;durP2;ratioP2
1370;SDS011;14306;49.942;11.570;2024-03-02T00:01:07;53.45;;;29.98;;
1370;SDS011;14306;49.942;11.570;2024-03-02T00:02:43;54.90;;;29.42;;
1370;SDS011;14306;49.942;11.570;2024-03-02T00:04:18;55.78;;;29.02;;
1370;SDS011;14306;49.942;11.570;2024-03-02T00:05:53;52.92;;;27.92;;
1370;SDS011;14306;49.942;11.570;2024-03-02T00:07:26;59.97;;;28.73;;
1370;SDS011;14306;49.942;11.570;2024-03-02T00:09:00;53.33;;;28.55;;
1370;SDS011;14306;49.942;11.570;2024-03-02T00:10:36;51.15;;;28.00;;
1370;SDS011;14306;49.942;11.570;2024-03-02T00:12:14;50.88;;;27.50;;
1370;SDS011;14306;49.942;11.570;2024-03-02T00:13:52;56.80;;;28.13;;
1370;SDS011;14306;49.942;11.570;2024-03-02T00:17:21;64.15;;;29.80;;
1370;SDS011;14306;49.942;11.570;2024-03-02T00:19:01;62.80;;;30.67;;
1370;SDS011;14306;49.942;11.570;2024-03-02T00:20:34;62.63;;;31.25;;
1370;SDS011;14306;49.942;11.570;2024-03-02T00:22:08;58.30;;;29.02;;
1370;SDS011;14306;49.942;11.570;2024-03-02T00:23:43;64.65;;;29.17;;
1370;SDS011;14306;49.942;11.570;2024-03-02T00:25:17;73.40;;;31.75;;
1370;SDS011;14306;49.942;11.570;2024-03-02T00:26:51;55.85;;;28.48;;
1370;SDS011;14306;49.942;11.570;2024-03-02T00:28:25;57.78;;;30.15;;
1370;SDS011;14306;49.942;11.570;2024-03-02T00:30:01;63.03;;;31.02;;
1370;SDS011;14306;49.942;11.570;2024-03-02T00:31:57;61.67;;;30.73;;
1370;SDS011;14306;49.942;11.570;2024-03-02T00:33:32;67.05;;;29.60;;
1370;SDS011;14306;49.942;11.570;2024-03-02T00:35:08;61.22;;;28.63;;
1370;SDS011;14306;49.942;11.570;2024-03-02T00:36:42;57.30;;;29.70;;
1370;SDS011;14306;49.942;11.570;2024-03-02T00:38:17;66.00;;;30.63;;
1370;SDS011;14306;49.942;11.570;2024-03-02T00:39:50;58.92;;;29.40;;
1370;SDS011;14306;49.942;11.570;2024-03-02T00:41:27;57.28;;;29.80;;
1370;SDS011;14306;49.942;11.570;2024-03-02T00:43:02;66.68;;;31.30;;
1370;SDS011;14306;49.942;11.570;2024-03-02T00:44:36;67.90;;;31.75;;
1370;SDS011;14306;49.942;11.570;2024-03-02T00:46:15;67.03;;;29.05;;
1370;SDS011;14306;49.942;11.570;2024-03-02T00:47:50;57.70;;;30.90;;
1370;SDS011;14306;49.942;11.570;2024-03-02T00:49:24;69.40;;;29.20;;
1370;SDS011;14306;49.942;11.570;2024-03-02T00:50:58;61.80;;;28.88;;
1370;SDS011;14306;49.942;11.570;2024-03-02T00:52:32;61.83;;;27.85;;
1370;SDS011;14306;49.942;11.570;2024-03-02T00:54:07;62.80;;;30.08;;
1370;SDS011;14306;49.942;11.570;2024-03-02T00:55:41;55.30;;;28.52;;
1370;SDS011;14306;49.942;11.570;2024-03-02T00:57:19;63.00;;;28.40;;
1370;SDS011;14306;49.942;11.570;2024-03-02T00:58:55;65.50;;;29.92;;
1370;SDS011;14306;49.942;11.570;2024-03-02T01:00:28;55.55;;;27.98;;
1370;SDS011;14306;49.942;11.570;2024-03-02T01:02:04;57.58;;;26.75;;
1370;SDS011;14306;49.942;11.570;2024-03-02T01:03:38;61.88;;;27.33;;
1370;SDS011;14306;49.942;11.570;2024-03-02T01:05:11;60.70;;;28.65;;
1370;SDS011;14306;49.942;11.570;2024-03-02T01:06:45;54.25;;;27.70;;
1370;SDS011;14306;49.942;11.570;2024-03-02T01:08:20;53.65;;;28.38;;
1370;SDS011;14306;49.942;11.570;2024-03-02T01:09:53;58.05;;;27.73;;
1370;SDS011;14306;49.942;11.570;2024-03-02T01:11:27;60.88;;;27.88;;
1370;SDS011;14306;49.942;11.570;2024-03-02T01:13:03;58.33;;;27.92;;
1370;SDS011;14306;49.942;11.570;2024-03-02T01:14:36;69.63;;;30.20;;
1370;SDS011;14306;49.942;11.570;2024-03-02T01:16:10;52.60;;;28.73;;
1370;SDS011;14306;49.942;11.570;2024-03-02T01:17:44;67.30;;;30.15;;
1370;SDS011;14306;49.942;11.570;2024-03-02T01:19:18;61.45;;;31.05;;
1370;SDS011;14306;49.942;11.570;2024-03-02T01:20:53;58.38;;;28.02;;
1370;SDS011;14306;49.942;11.570;2024-03-02T01:22:28;53.05;;;27.25;;
1370;SDS011;14306;49.942;11.570;2024-03-02T01:24:02;61.15;;;29.58;;
1370;SDS011;14306;49.942;11.570;2024-03-02T01:25:37;57.92;;;28.88;;
1370;SDS011;14306;49.942;11.570;2024-03-02T01:27:10;66.78;;;29.42;;
1370;SDS011;14306;49.942;11.570;2024-03-02T01:28:44;61.50;;;29.15;;
1370;SDS011;14306;49.942;11.570;2024-03-02T01:30:19;56.55;;;26.70;;
1370;SDS011;14306;49.942;11.570;2024-03-02T01:31:52;60.25;;;27.95;;
1370;SDS011;14306;49.942;11.570;2024-03-02T01:33:27;61.78;;;29.05;;
1370;SDS011;14306;49.942;11.570;2024-03-02T01:35:01;54.17;;;28.77;;
1370;SDS011;14306;49.942;11.570;2024-03-02T01:36:34;65.88;;;29.38;;
1370;SDS011;14306;49.942;11.570;2024-03-02T01:38:08;65.75;;;30.27;;
1370;SDS011;14306;49.942;11.570;2024-03-02T01:39:41;59.40;;;28.30;;
1370;SDS011;14306;49.942;11.570;2024-03-02T01:41:15;63.08;;;29.85;;
1370;SDS011;14306;49.942;11.570;2024-03-02T01:42:48;60.30;;;28.52;;
1370;SDS011;14306;49.942;11.570;2024-03-02T01:44:23;57.85;;;28.88;;
1370;SDS011;14306;49.942;11.570;2024-03-02T01:45:57;56.97;;;29.35;;
1370;SDS011;14306;49.942;11.570;2024-03-02T01:47:31;49.35;;;26.02;;
1370;SDS011;14306;49.942;11.570;2024-03-02T01:49:07;68.15;;;30.23;;
1370;SDS011;14306;49.942;11.570;2024-03-02T01:50:41;55.75;;;28.45;;
1370;SDS011;14306;49.942;11.570;2024-03-02T01:52:14;59.03;;;29.63;;
1370;SDS011;14306;49.942;11.570;2024-03-02T01:53:48;56.45;;;28.27;;
1370;SDS011;14306;49.942;11.570;2024-03-02T01:55:22;59.65;;;28.00;;
1370;SDS011;14306;49.942;11.570;2024-03-02T01:56:55;60.60;;;29.33;;
1370;SDS011;14306;49.942;11.570;2024-03-02T01:58:29;64.10;;;29.92;;
1370;SDS011;14306;49.942;11.570;2024-03-02T02:00:03;65.28;;;27.80;;
1370;SDS011;14306;49.942;11.570;2024-03-02T02:01:38;60.38;;;29.42;;
1370;SDS011;14306;49.942;11.570;2024-03-02T02:03:11;61.28;;;30.38;;
1370;SDS011;14306;49.942;11.570;2024-03-02T02:04:47;61.60;;;30.85;;
1370;SDS011;14306;49.942;11.570;2024-03-02T02:06:20;58.50;;;28.38;;
1370;SDS011;14306;49.942;11.570;2024-03-02T02:07:54;61.42;;;29.50;;
1370;SDS011;14306;49.942;11.570;2024-03-02T02:09:28;61.03;;;29.58;;
1370;SDS011;14306;49.942;11.570;2024-03-02T02:11:02;63.95;;;28.40;;
1370;SDS011;14306;49.942;11.570;2024-03-02T02:12:35;54.35;;;27.77;;
1370;SDS011;14306;49.942;11.570;2024-03-02T02:14:10;58.63;;;29.08;;
1370;SDS011;14306;49.942;11.570;2024-03-02T02:15:44;58.10;;;29.75;;
1370;SDS011;14306;49.942;11.570;2024-03-02T02:17:19;63.92;;;30.23;;
1370;SDS011;14306;49.942;11.570;2024-03-02T02:18:52;59.42;;;28.92;;
1370;SDS011;14306;49.942;11.570;2024-03-02T02:20:27;65.75;;;30.52;;
1370;SDS011;14306;49.942;11.570;2024-03-02T02:22:03;65.60;;;29.75;;
1370;SDS011;14306;49.942;11.570;2024-03-02T02:23:36;59.50;;;29.35;;
1370;SDS011;14306;49.942;11.570;2024-03-02T02:25:10;64.57;;;30.17;;
1370;SDS011;14306;49.942;11.570;2024-03-02T02:26:43;56.75;;;28.10;;
1370;SDS011;14306;49.942;11.570;2024-03-02T02:28:18;65.03;;;30.80;;
1370;SDS011;14306;49.942;11.570;2024-03-02T02:29:51;64.90;;;31.25;;
1370;SDS011;14306;49.942;11.570;2024-03-02T02:31:25;62.15;;;30.98;;
1370;SDS011;14306;49.942;11.570;2024-03-02T02:32:59;65.70;;;29.73;;
1370;SDS011;14306;49.942;11.570;2024-03-02T02:34:34;61.50;;;32.25;;
1370;SDS011;14306;49.942;11.570;2024-03-02T02:36:07;60.53;;;30.05;;
1370;SDS011;14306;49.942;11.570;2024-03-02T02:37:43;71.32;;;30.83;;
1370;SDS011;14306;49.942;11.570;2024-03-02T02:39:18;69.90;;;34.20;;
1370;SDS011;14306;49.942;11.570;2024-03-02T02:40:55;70.05;;;31.38;;
1370;SDS011;14306;49.942;11.570;2024-03-02T02:42:28;71.00;;;30.75;;
1370;SDS011;14306;49.942;11.570;2024-03-02T02:44:02;74.05;;;31.92;;
1370;SDS011;14306;49.942;11.570;2024-03-02T02:45:35;69.30;;;32.08;;
1370;SDS011;14306;49.942;11.570;2024-03-02T02:47:09;71.07;;;30.88;;
1370;SDS011;14306;49.942;11.570;2024-03-02T02:48:42;62.92;;;30.88;;
1370;SDS011;14306;49.942;11.570;2024-03-02T02:50:16;76.95;;;33.38;;
1370;SDS011;14306;49.942;11.570;2024-03-02T02:51:49;60.78;;;30.35;;
1370;SDS011;14306;49.942;11.570;2024-03-02T02:53:25;63.92;;;31.85;;
1370;SDS011;14306;49.942;11.570;2024-03-02T02:54:59;71.22;;;32.47;;
1370;SDS011;14306;49.942;11.570;2024-03-02T02:56:32;67.85;;;32.90;;
1370;SDS011;14306;49.942;11.570;2024-03-02T02:58:06;66.15;;;31.10;;
1370;SDS011;14306;49.942;11.570;2024-03-02T02:59:39;66.95;;;31.98;;
1370;SDS011;14306;49.942;11.570;2024-03-02T03:01:13;65.38;;;31.52;;
1370;SDS011;14306;49.942;11.570;2024-03-02T03:02:48;70.97;;;34.00;;
1370;SDS011;14306;49.942;11.570;2024-03-02T03:04:23;75.10;;;34.47;;
1370;SDS011;14306;49.942;11.570;2024-03-02T03:05:56;74.40;;;31.67;;
1370;SDS011;14306;49.942;11.570;2024-03-02T03:07:30;66.78;;;32.47;;
1370;SDS011;14306;49.942;11.570;2024-03-02T03:09:05;69.85;;;31.67;;
1370;SDS011;14306;49.942;11.570;2024-03-02T03:10:39;78.63;;;34.05;;
1370;SDS011;14306;49.942;11.570;2024-03-02T03:12:12;70.57;;;32.88;;
1370;SDS011;14306;49.942;11.570;2024-03-02T03:13:47;79.53;;;33.25;;
1370;SDS011;14306;49.942;11.570;2024-03-02T03:15:20;76.22;;;34.03;;
1370;SDS011;14306;49.942;11.570;2024-03-02T03:16:54;79.30;;;35.83;;
1370;SDS011;14306;49.942;11.570;2024-03-02T03:18:28;76.20;;;32.03;;
1370;SDS011;14306;49.942;11.570;2024-03-02T03:20:02;72.88;;;33.75;;
1370;SDS011;14306;49.942;11.570;2024-03-02T03:21:36;78.45;;;34.75;;
1370;SDS011;14306;49.942;11.570;2024-03-02T03:23:10;76.85;;;35.35;;
1370;SDS011;14306;49.942;11.570;2024-03-02T03:24:49;75.90;;;34.50;;
1370;SDS011;14306;49.942;11.570;2024-03-02T03:26:23;75.72;;;33.70;;
1370;SDS011;14306;49.942;11.570;2024-03-02T03:27:57;80.90;;;35.97;;
1370;SDS011;14306;49.942;11.570;2024-03-02T03:29:30;67.03;;;32.67;;
1370;SDS011;14306;49.942;11.570;2024-03-02T03:31:04;71.75;;;33.38;;
1370;SDS011;14306;49.942;11.570;2024-03-02T03:32:39;82.35;;;35.08;;
1370;SDS011;14306;49.942;11.570;2024-03-02T03:34:12;71.47;;;33.53;;
1370;SDS011;14306;49.942;11.570;2024-03-02T03:35:48;76.43;;;35.22;;
1370;SDS011;14306;49.942;11.570;2024-03-02T03:37:21;73.53;;;33.05;;
1370;SDS011;14306;49.942;11.570;2024-03-02T03:38:56;68.40;;;31.90;;
1370;SDS011;14306;49.942;11.570;2024-03-02T03:40:31;75.38;;;33.88;;
1370;SDS011;14306;49.942;11.570;2024-03-02T03:42:05;69.28;;;34.67;;
1370;SDS011;14306;49.942;11.570;2024-03-02T03:43:39;72.88;;;34.03;;
1370;SDS011;14306;49.942;11.570;2024-03-02T03:45:13;75.25;;;34.10;;
1370;SDS011;14306;49.942;11.570;2024-03-02T03:46:46;68.68;;;32.03;;
1370;SDS011;14306;49.942;11.570;2024-03-02T03:48:20;73.28;;;34.20;;
1370;SDS011;14306;49.942;11.570;2024-03-02T03:49:54;74.47;;;33.83;;
1370;SDS011;14306;49.942;11.570;2024-03-02T03:51:28;83.78;;;34.75;;
1370;SDS011;14306;49.942;11.570;2024-03-02T03:53:01;85.10;;;34.40;;
1370;SDS011;14306;49.942;11.570;2024-03-02T03:54:35;76.50;;;36.42;;
1370;SDS011;14306;49.942;11.570;2024-03-02T03:56:11;94.07;;;36.92;;
1370;SDS011;14306;49.942;11.570;2024-03-02T03:57:45;82.60;;;36.85;;
1370;SDS011;14306;49.942;11.570;2024-03-02T03:59:19;78.60;;;35.92;;
1370;SDS011;14306;49.942;11.570;2024-03-02T04:00:52;78.50;;;34.70;;
1370;SDS011;14306;49.942;11.570;2024-03-02T04:02:27;79.70;;;34.92;;
1370;SDS011;14306;49.942;11.570;2024-03-02T04:04:00;81.55;;;35.17;;
1370;SDS011;14306;49.942;11.570;2024-03-02T04:05:36;81.07;;;36.05;;
1370;SDS011;14306;49.942;11.570;2024-03-02T04:07:10;87.70;;;37.13;;
1370;SDS011;14306;49.942;11.570;2024-03-02T04:08:44;80.22;;;35.55;;
1370;SDS011;14306;49.942;11.570;2024-03-02T04:10:18;83.65;;;36.92;;
1370;SDS011;14306;49.942;11.570;2024-03-02T04:11:54;85.05;;;35.95;;
1370;SDS011;14306;49.942;11.570;2024-03-02T04:13:27;94.25;;;37.22;;
1370;SDS011;14306;49.942;11.570;2024-03-02T04:15:02;83.22;;;36.15;;
1370;SDS011;14306;49.942;11.570;2024-03-02T04:16:36;82.32;;;34.30;;
1370;SDS011;14306;49.942;11.570;2024-03-02T04:18:11;75.90;;;32.17;;
1370;SDS011;14306;49.942;11.570;2024-03-02T04:19:44;82.57;;;35.15;;
1370;SDS011;14306;49.942;11.570;2024-03-02T04:21:19;70.93;;;33.30;;
1370;SDS011;14306;49.942;11.570;2024-03-02T04:22:52;80.07;;;34.83;;
1370;SDS011;14306;49.942;11.570;2024-03-02T04:24:26;75.13;;;32.42;;
1370;SDS011;14306;49.942;11.570;2024-03-02T04:25:59;80.00;;;36.13;;
1370;SDS011;14306;49.942;11.570;2024-03-02T04:27:36;67.65;;;32.47;;
1370;SDS011;14306;49.942;11.570;2024-03-02T04:29:09;90.22;;;34.97;;
1370;SDS011;14306;49.942;11.570;2024-03-02T04:30:43;82.07;;;33.40;;
1370;SDS011;14306;49.942;11.570;2024-03-02T04:32:17;89.70;;;36.92;;
1370;SDS011;14306;49.942;11.570;2024-03-02T04:33:52;76.28;;;35.70;;
1370;SDS011;14306;49.942;11.570;2024-03-02T04:35:26;79.63;;;34.83;;
1370;SDS011;14306;49.942;11.570;2024-03-02T04:37:00;74.18;;;34.78;;
1370;SDS011;14306;49.942;11.570;2024-03-02T04:38:34;83.45;;;33.80;;
1370;SDS011;14306;49.942;11.570;2024-03-02T04:40:08;87.13;;;35.70;;
1370;SDS011;14306;49.942;11.570;2024-03-02T04:41:43;82.35;;;36.58;;
1370;SDS011;14306;49.942;11.570;2024-03-02T04:43:17;88.90;;;34.60;;
1370;SDS011;14306;49.942;11.570;2024-03-02T04:44:51;82.38;;;35.75;;
1370;SDS011;14306;49.942;11.570;2024-03-02T04:46:25;90.28;;;35.00;;
1370;SDS011;14306;49.942;11.570;2024-03-02T04:47:59;82.97;;;35.60;;
1370;SDS011;14306;49.942;11.570;2024-03-02T04:49:32;81.25;;;35.35;;
1370;SDS011;14306;49.942;11.570;2024-03-02T04:51:06;80.15;;;34.55;;
1370;SDS011;14306;49.942;11.570;2024-03-02T04:52:40;77.28;;;33.25;;
1370;SDS011;14306;49.942;11.570;2024-03-02T04:54:14;79.38;;;34.67;;
1370;SDS011;14306;49.942;11.570;2024-03-02T04:55:47;81.10;;;36.85;;
1370;SDS011;14306;49.942;11.570;2024-03-02T04:57:39;78.97;;;34.40;;
1370;SDS011;14306;49.942;11.570;2024-03-02T04:59:15;84.88;;;35.38;;
1370;SDS011;14306;49.942;11.570;2024-03-02T05:00:49;77.65;;;33.47;;
1370;SDS011;14306;49.942;11.570;2024-03-02T05:02:23;77.15;;;34.38;;
1370;SDS011;14306;49.942;11.570;2024-03-02T05:03:57;81.15;;;35.53;;
1370;SDS011;14306;49.942;11.570;2024-03-02T05:05:30;79.47;;;35.28;;
1370;SDS011;14306;49.942;11.570;2024-03-02T05:07:05;68.40;;;30.75;;
1370;SDS011;14306;49.942;11.570;2024-03-02T05:08:38;72.85;;;34.83;;
1370;SDS011;14306;49.942;11.570;2024-03-02T05:10:12;72.85;;;32.72;;
1370;SDS011;14306;49.942;11.570;2024-03-02T05:11:47;87.00;;;36.25;;
1370;SDS011;14306;49.942;11.570;2024-03-02T05:13:42;76.13;;;34.80;;
1370;SDS011;14306;49.942;11.570;2024-03-02T05:15:17;82.07;;;33.42;;
1370;SDS011;14306;49.942;11.570;2024-03-02T05:16:51;81.28;;;34.20;;
1370;SDS011;14306;49.942;11.570;2024-03-02T05:18:24;63.08;;;31.85;;
1370;SDS011;14306;49.942;11.570;2024-03-02T05:19:59;72.43;;;33.05;;
1370;SDS011;14306;49.942;11.570;2024-03-02T05:21:32;74.65;;;33.58;;
1370;SDS011;14306;49.942;11.570;2024-03-02T05:23:06;78.57;;;35.28;;
1370;SDS011;14306;49.942;11.570;2024-03-02T05:24:40;76.43;;;33.90;;
1370;SDS011;14306;49.942;11.570;2024-03-02T05:26:13;72.07;;;32.28;;
1370;SDS011;14306;49.942;11.570;2024-03-02T05:27:47;69.15;;;31.23;;
1370;SDS011;14306;49.942;11.570;2024-03-02T05:29:21;76.03;;;33.97;;
1370;SDS011;14306;49.942;11.570;2024-03-02T05:30:57;67.03;;;31.63;;
1370;SDS011;14306;49.942;11.570;2024-03-02T05:32:30;84.05;;;34.33;;
1370;SDS011;14306;49.942;11.570;2024-03-02T05:34:04;72.60;;;33.00;;
1370;SDS011;14306;49.942;11.570;2024-03-02T05:35:38;71.70;;;33.38;;
1370;SDS011;14306;49.942;11.570;2024-03-02T05:37:12;67.07;;;31.40;;
1370;SDS011;14306;49.942;11.570;2024-03-02T05:38:46;72.15;;;30.10;;
1370;SDS011;14306;49.942;11.570;2024-03-02T05:40:20;65.32;;;32.05;;
1370;SDS011;14306;49.942;11.570;2024-03-02T05:41:55;68.93;;;33.55;;
1370;SDS011;14306;49.942;11.570;2024-03-02T05:43:29;65.28;;;32.05;;
1370;SDS011;14306;49.942;11.570;2024-03-02T05:45:03;66.72;;;32.42;;
1370;SDS011;14306;49.942;11.570;2024-03-02T05:46:40;61.63;;;30.40;;
1370;SDS011;14306;49.942;11.570;2024-03-02T05:48:13;67.47;;;31.77;;
1370;SDS011;14306;49.942;11.570;2024-03-02T05:49:47;66.88;;;30.02;;
1370;SDS011;14306;49.942;11.570;2024-03-02T05:51:20;68.70;;;32.13;;
1370;SDS011;14306;49.942;11.570;2024-03-02T05:52:55;73.10;;;30.25;;
1370;SDS011;14306;49.942;11.570;2024-03-02T05:54:29;61.60;;;28.77;;
1370;SDS011;14306;49.942;11.570;2024-03-02T05:56:03;57.60;;;27.23;;
1370;SDS011;14306;49.942;11.570;2024-03-02T05:57:37;59.40;;;28.60;;
1370;SDS011;14306;49.942;11.570;2024-03-02T05:59:28;53.10;;;27.50;;
1370;SDS011;14306;49.942;11.570;2024-03-02T06:01:02;50.08;;;27.02;;
1370;SDS011;14306;49.942;11.570;2024-03-02T06:02:40;48.28;;;25.05;;
1370;SDS011;14306;49.942;11.570;2024-03-02T06:04:14;44.33;;;25.50;;
1370;SDS011;14306;49.942;11.570;2024-03-02T06:05:47;47.67;;;25.77;;
1370;SDS011;14306;49.942;11.570;2024-03-02T06:07:22;46.92;;;25.45;;
1370;SDS011;14306;49.942;11.570;2024-03-02T06:08:55;49.95;;;25.25;;
1370;SDS011;14306;49.942;11.570;2024-03-02T06:10:30;44.55;;;25.10;;
1370;SDS011;14306;49.942;11.570;2024-03-02T06:12:03;44.22;;;23.50;;
1370;SDS011;14306;49.942;11.570;2024-03-02T06:13:38;51.70;;;24.33;;
1370;SDS011;14306;49.942;11.570;2024-03-02T06:15:13;43.95;;;23.15;;
1370;SDS011;14306;49.942;11.570;2024-03-02T06:16:46;46.55;;;24.77;;
1370;SDS011;14306;49.942;11.570;2024-03-02T06:18:21;42.50;;;23.75;;
1370;SDS011;14306;49.942;11.570;2024-03-02T06:19:55;48.70;;;23.15;;
1370;SDS011;14306;49.942;11.570;2024-03-02T06:21:29;43.25;;;22.60;;
1370;SDS011;14306;49.942;11.570;2024-03-02T06:23:03;44.15;;;24.65;;
1370;SDS011;14306;49.942;11.570;2024-03-02T06:24:37;41.00;;;22.67;;
1370;SDS011;14306;49.942;11.570;2024-03-02T06:26:12;35.05;;;21.15;;
1370;SDS011;14306;49.942;11.570;2024-03-02T06:27:45;39.22;;;21.77;;
1370;SDS011;14306;49.942;11.570;2024-03-02T06:29:19;38.95;;;21.58;;
1370;SDS011;14306;49.942;11.570;2024-03-02T06:30:52;36.53;;;22.20;;
1370;SDS011;14306;49.942;11.570;2024-03-02T06:32:27;36.83;;;21.00;;
1370;SDS011;14306;49.942;11.570;2024-03-02T06:34:01;38.35;;;21.45;;
1370;SDS011;14306;49.942;11.570;2024-03-02T06:35:37;36.42;;;21.15;;
1370;SDS011;14306;49.942;11.570;2024-03-02T06:37:11;34.42;;;19.55;;
1370;SDS011;14306;49.942;11.570;2024-03-02T06:38:47;35.15;;;20.02;;
1370;SDS011;14306;49.942;11.570;2024-03-02T06:40:20;37.28;;;21.50;;
1370;SDS011;14306;49.942;11.570;2024-03-02T06:41:54;34.45;;;20.08;;
1370;SDS011;14306;49.942;11.570;2024-03-02T06:43:27;30.10;;;19.05;;
1370;SDS011;14306;49.942;11.570;2024-03-02T06:45:02;39.03;;;21.50;;
1370;SDS011;14306;49.942;11.570;2024-03-02T06:46:36;33.55;;;19.75;;
1370;SDS011;14306;49.942;11.570;2024-03-02T06:48:10;28.55;;;18.10;;
1370;SDS011;14306;49.942;11.570;2024-03-02T06:49:44;33.67;;;19.48;;
1370;SDS011;14306;49.942;11.570;2024-03-02T06:51:19;31.48;;;19.55;;
1370;SDS011;14306;49.942;11.570;2024-03-02T06:52:53;32.33;;;19.38;;
1370;SDS011;14306;49.942;11.570;2024-03-02T06:54:28;32.25;;;18.63;;
1370;SDS011;14306;49.942;11.570;2024-03-02T06:56:01;29.60;;;18.33;;
1370;SDS011;14306;49.942;11.570;2024-03-02T06:57:37;27.73;;;18.25;;
1370;SDS011;14306;49.942;11.570;2024-03-02T06:59:10;31.38;;;19.80;;
1370;SDS011;14306;49.942;11.570;2024-03-02T07:00:44;30.02;;;18.17;;
1370;SDS011;14306;49.942;11.570;2024-03-02T07:02:18;27.85;;;16.38;;
1370;SDS011;14306;49.942;11.570;2024-03-02T07:03:52;29.42;;;16.33;;
1370;SDS011;14306;49.942;11.570;2024-03-02T07:05:27;25.23;;;15.82;;
1370;SDS011;14306;49.942;11.570;2024-03-02T07:07:00;23.65;;;15.75;;
1370;SDS011;14306;49.942;11.570;2024-03-02T07:08:35;24.15;;;15.88;;
1370;SDS011;14306;49.942;11.570;2024-03-02T07:10:08;20.73;;;14.48;;
1370;SDS011;14306;49.942;11.570;2024-03-02T07:11:42;26.05;;;16.42;;
1370;SDS011;14306;49.942;11.570;2024-03-02T07:13:17;26.90;;;16.08;;
1370;SDS011;14306;49.942;11.570;2024-03-02T07:14:52;24.73;;;16.48;;
1370;SDS011;14306;49.942;11.570;2024-03-02T07:16:54;25.20;;;14.73;;
1370;SDS011;14306;49.942;11.570;2024-03-02T07:18:28;23.73;;;15.27;;
1370;SDS011;14306;49.942;11.570;2024-03-02T07:20:01;23.90;;;14.52;;
1370;SDS011;14306;49.942;11.570;2024-03-02T07:21:37;25.10;;;15.90;;
1370;SDS011;14306;49.942;11.570;2024-03-02T07:23:12;21.52;;;15.13;;
1370;SDS011;14306;49.942;11.570;2024-03-02T07:24:45;24.50;;;15.15;;
1370;SDS011;14306;49.942;11.570;2024-03-02T07:26:19;28.27;;;16.67;;
1370;SDS011;14306;49.942;11.570;2024-03-02T07:27:57;25.40;;;16.17;;
1370;SDS011;14306;49.942;11.570;2024-03-02T07:29:31;27.00;;;17.00;;
1370;SDS011;14306;49.942;11.570;2024-03-02T07:31:05;26.48;;;16.20;;
1370;SDS011;14306;49.942;11.570;2024-03-02T07:32:38;24.90;;;15.77;;
1370;SDS011;14306;49.942;11.570;2024-03-02T07:34:14;27.48;;;15.85;;
1370;SDS011;14306;49.942;11.570;2024-03-02T07:35:47;23.15;;;14.57;;
1370;SDS011;14306;49.942;11.570;2024-03-02T07:37:23;30.45;;;16.65;;
1370;SDS011;14306;49.942;11.570;2024-03-02T07:38:56;26.30;;;16.05;;
1370;SDS011;14306;49.942;11.570;2024-03-02T07:40:31;28.50;;;16.25;;
1370;SDS011;14306;49.942;11.570;2024-03-02T07:42:05;28.08;;;17.25;;
1370;SDS011;14306;49.942;11.570;2024-03-02T07:43:39;28.02;;;15.27;;
1370;SDS011;14306;49.942;11.570;2024-03-02T07:45:12;24.98;;;17.02;;
1370;SDS011;14306;49.942;11.570;2024-03-02T07:46:46;24.95;;;15.07;;
1370;SDS011;14306;49.942;11.570;2024-03-02T07:48:22;27.63;;;16.30;;
1370;SDS011;14306;49.942;11.570;2024-03-02T07:49:57;27.27;;;15.57;;
1370;SDS011;14306;49.942;11.570;2024-03-02T07:51:31;25.95;;;15.77;;
1370;SDS011;14306;49.942;11.570;2024-03-02T07:53:06;30.33;;;16.10;;
1370;SDS011;14306;49.942;11.570;2024-03-02T07:54:41;26.67;;;16.83;;
1370;SDS011;14306;49.942;11.570;2024-03-02T07:56:15;23.17;;;15.15;;
1370;SDS011;14306;49.942;11.570;2024-03-02T07:57:54;27.77;;;16.17;;
1370;SDS011;14306;49.942;11.570;2024-03-02T07:59:28;29.58;;;16.00;;
1370;SDS011;14306;49.942;11.570;2024-03-02T08:01:02;20.85;;;14.38;;
1370;SDS011;14306;49.942;11.570;2024-03-02T08:02:37;28.35;;;14.90;;
1370;SDS011;14306;49.942;11.570;2024-03-02T08:04:10;25.77;;;14.43;;
1370;SDS011;14306;49.942;11.570;2024-03-02T08:05:45;27.90;;;16.05;;
1370;SDS011;14306;49.942;11.570;2024-03-02T08:07:19;22.98;;;15.32;;
1370;SDS011;14306;49.942;11.570;2024-03-02T08:08:55;28.25;;;16.15;;
1370;SDS011;14306;49.942;11.570;2024-03-02T08:10:29;26.85;;;16.20;;
1370;SDS011;14306;49.942;11.570;2024-03-02T08:12:03;28.15;;;15.95;;
1370;SDS011;14306;49.942;11.570;2024-03-02T08:13:38;29.88;;;16.60;;
1370;SDS011;14306;49.942;11.570;2024-03-02T08:15:11;25.45;;;15.80;;
1370;SDS011;14306;49.942;11.570;2024-03-02T08:16:45;26.08;;;16.17;;
1370;SDS011;14306;49.942;11.570;2024-03-02T08:18:20;27.42;;;14.93;;
1370;SDS011;14306;49.942;11.570;2024-03-02T08:19:54;23.02;;;14.25;;
1370;SDS011;14306;49.942;11.570;2024-03-02T08:21:28;25.25;;;15.15;;
1370;SDS011;14306;49.942;11.570;2024-03-02T08:23:03;22.40;;;14.20;;
1370;SDS011;14306;49.942;11.570;2024-03-02T08:24:40;25.42;;;15.13;;
1370;SDS011;14306;49.942;11.570;2024-03-02T08:26:14;26.33;;;17.38;;
1370;SDS011;14306;49.942;11.570;2024-03-02T08:27:48;24.42;;;15.43;;
1370;SDS011;14306;49.942;11.570;2024-03-02T08:29:21;26.35;;;15.80;;
1370;SDS011;14306;49.942;11.570;2024-03-02T08:30:56;28.80;;;15.85;;
1370;SDS011;14306;49.942;11.570;2024-03-02T08:32:29;24.15;;;15.50;;
1370;SDS011;14306;49.942;11.570;2024-03-02T08:34:05;24.42;;;15.88;;
1370;SDS011;14306;49.942;11.570;2024-03-02T08:35:38;27.77;;;15.68;;
1370;SDS011;14306;49.942;11.570;2024-03-02T08:37:12;24.05;;;13.98;;
1370;SDS011;14306;49.942;11.570;2024-03-02T08:38:48;26.02;;;16.23;;
1370;SDS011;14306;49.942;11.570;2024-03-02T08:40:23;24.15;;;14.68;;
1370;SDS011;14306;49.942;11.570;2024-03-02T08:41:57;25.13;;;14.55;;
1370;SDS011;14306;49.942;11.570;2024-03-02T08:43:30;24.80;;;14.65;;
1370;SDS011;14306;49.942;11.570;2024-03-02T08:45:05;24.20;;;14.68;;
1370;SDS011;14306;49.942;11.570;2024-03-02T08:46:39;23.00;;;14.25;;
1370;SDS011;14306;49.942;11.570;2024-03-02T08:48:13;20.40;;;13.00;;
1370;SDS011;14306;49.942;11.570;2024-03-02T08:49:46;24.13;;;14.77;;
1370;SDS011;14306;49.942;11.570;2024-03-02T08:51:21;24.92;;;14.55;;
1370;SDS011;14306;49.942;11.570;2024-03-02T08:52:54;20.95;;;13.82;;
1370;SDS011;14306;49.942;11.570;2024-03-02T08:54:29;20.55;;;12.90;;
1370;SDS011;14306;49.942;11.570;2024-03-02T08:56:04;21.77;;;14.18;;
1370;SDS011;14306;49.942;11.570;2024-03-02T08:57:39;21.67;;;14.55;;
1370;SDS011;14306;49.942;11.570;2024-03-02T08:59:14;22.02;;;14.48;;
1370;SDS011;14306;49.942;11.570;2024-03-02T09:00:48;21.70;;;14.23;;
1370;SDS011;14306;49.942;11.570;2024-03-02T09:02:21;23.73;;;15.55;;
1370;SDS011;14306;49.942;11.570;2024-03-02T09:03:56;20.65;;;13.85;;
1370;SDS011;14306;49.942;11.570;2024-03-02T09:05:29;20.50;;;13.75;;
1370;SDS011;14306;49.942;11.570;2024-03-02T09:07:03;24.73;;;15.90;;
1370;SDS011;14306;49.942;11.570;2024-03-02T09:08:37;24.45;;;15.45;;
1370;SDS011;14306;49.942;11.570;2024-03-02T09:10:12;21.13;;;13.38;;
1370;SDS011;14306;49.942;11.570;2024-03-02T09:11:47;21.17;;;14.15;;
1370;SDS011;14306;49.942;11.570;2024-03-02T09:13:21;23.00;;;15.75;;
1370;SDS011;14306;49.942;11.570;2024-03-02T09:14:55;20.20;;;12.77;;